sensor_id;sensor_type;location;lat;lon;timestamp;temperature;humidity
75824;DHT22;64457;51.976;9.834;2023-05-07T00:02:10;15.90;90.80
75824;DHT22;64457;51.976;9.834;2023-05-07T00:04:37;15.90;90.90
75824;DHT22;64457;51.976;9.834;2023-05-07T00:07:05;15.90;91.10
75824;DHT22;64457;51.976;9.834;2023-05-07T00:09:32;15.90;91.10
75824;DHT22;64457;51.976;9.834;2023-05-07T00:11:59;15.90;91.30
75824;DHT22;64457;51.976;9.834;2023-05-07T00:14:28;16.00;90.90
75824;DHT22;64457;51.976;9.834;2023-05-07T00:16:55;16.00;90.90
75824;DHT22;64457;51.976;9.834;2023-05-07T00:19:22;16.20;90.90
75824;DHT22;64457;51.976;9.834;2023-05-07T00:21:50;16.10;90.80
75824;DHT22;64457;51.976;9.834;2023-05-07T00:24:19;15.90;91.10
75824;DHT22;64457;51.976;9.834;2023-05-07T00:26:46;15.80;91.30
75824;DHT22;64457;51.976;9.834;2023-05-07T00:29:13;15.60;91.50
75824;DHT22;64457;51.976;9.834;2023-05-07T00:31:42;15.60;91.70
75824;DHT22;64457;51.976;9.834;2023-05-07T00:34:09;15.50;91.90
75824;DHT22;64457;51.976;9.834;2023-05-07T00:36:37;15.40;91.90
75824;DHT22;64457;51.976;9.834;2023-05-07T00:39:04;15.30;92.10
75824;DHT22;64457;51.976;9.834;2023-05-07T00:41:32;15.30;92.30
75824;DHT22;64457;51.976;9.834;2023-05-07T00:43:59;15.40;91.90
75824;DHT22;64457;51.976;9.834;2023-05-07T00:46:28;15.50;91.90
75824;DHT22;64457;51.976;9.834;2023-05-07T00:48:59;15.20;92.20
75824;DHT22;64457;51.976;9.834;2023-05-07T00:51:27;15.20;92.30
75824;DHT22;64457;51.976;9.834;2023-05-07T00:53:55;15.30;92.60
75824;DHT22;64457;51.976;9.834;2023-05-07T00:56:22;15.30;92.10
75824;DHT22;64457;51.976;9.834;2023-05-07T00:58:50;15.30;92.20
75824;DHT22;64457;51.976;9.834;2023-05-07T01:01:18;15.30;92.40
75824;DHT22;64457;51.976;9.834;2023-05-07T01:03:45;15.40;92.30
75824;DHT22;64457;51.976;9.834;2023-05-07T01:06:15;15.40;92.10
75824;DHT22;64457;51.976;9.834;2023-05-07T01:08:43;15.50;92.10
75824;DHT22;64457;51.976;9.834;2023-05-07T01:11:11;15.60;91.90
75824;DHT22;64457;51.976;9.834;2023-05-07T01:13:39;15.70;92.20
75824;DHT22;64457;51.976;9.834;2023-05-07T01:16:08;15.50;91.80
75824;DHT22;64457;51.976;9.834;2023-05-07T01:18:36;15.40;92.10
75824;DHT22;64457;51.976;9.834;2023-05-07T01:21:05;15.40;92.20
75824;DHT22;64457;51.976;9.834;2023-05-07T01:23:34;15.40;92.40
75824;DHT22;64457;51.976;9.834;2023-05-07T01:26:02;15.40;92.30
75824;DHT22;64457;51.976;9.834;2023-05-07T01:28:29;15.50;91.90
75824;DHT22;64457;51.976;9.834;2023-05-07T01:31:00;15.60;91.90
75824;DHT22;64457;51.976;9.834;2023-05-07T01:33:33;15.70;91.80
75824;DHT22;64457;51.976;9.834;2023-05-07T01:36:01;15.60;91.80
75824;DHT22;64457;51.976;9.834;2023-05-07T01:38:33;15.60;92.00
75824;DHT22;64457;51.976;9.834;2023-05-07T01:41:01;15.70;91.80
75824;DHT22;64457;51.976;9.834;2023-05-07T01:43:29;15.60;91.80
75824;DHT22;64457;51.976;9.834;2023-05-07T01:45:57;15.60;92.10
75824;DHT22;64457;51.976;9.834;2023-05-07T01:48:26;15.50;92.00
75824;DHT22;64457;51.976;9.834;2023-05-07T01:50:53;15.50;92.10
75824;DHT22;64457;51.976;9.834;2023-05-07T01:53:21;15.50;92.20
75824;DHT22;64457;51.976;9.834;2023-05-07T01:55:50;15.60;92.10
75824;DHT22;64457;51.976;9.834;2023-05-07T01:58:18;15.60;92.10
75824;DHT22;64457;51.976;9.834;2023-05-07T02:00:45;15.60;92.10
75824;DHT22;64457;51.976;9.834;2023-05-07T02:03:13;15.60;91.90
75824;DHT22;64457;51.976;9.834;2023-05-07T02:05:40;15.50;92.00
75824;DHT22;64457;51.976;9.834;2023-05-07T02:08:07;15.40;92.10
75824;DHT22;64457;51.976;9.834;2023-05-07T02:10:35;15.40;92.30
75824;DHT22;64457;51.976;9.834;2023-05-07T02:13:04;15.30;92.60
75824;DHT22;64457;51.976;9.834;2023-05-07T02:15:31;15.40;92.60
75824;DHT22;64457;51.976;9.834;2023-05-07T02:18:00;15.50;92.40
75824;DHT22;64457;51.976;9.834;2023-05-07T02:20:28;15.50;92.30
75824;DHT22;64457;51.976;9.834;2023-05-07T02:22:56;15.30;92.30
75824;DHT22;64457;51.976;9.834;2023-05-07T02:25:24;15.20;92.70
75824;DHT22;64457;51.976;9.834;2023-05-07T02:27:52;15.10;92.80
75824;DHT22;64457;51.976;9.834;2023-05-07T02:30:21;15.20;92.90
75824;DHT22;64457;51.976;9.834;2023-05-07T02:32:48;15.30;92.70
75824;DHT22;64457;51.976;9.834;2023-05-07T02:35:15;15.40;92.60
75824;DHT22;64457;51.976;9.834;2023-05-07T02:37:43;15.40;92.40
75824;DHT22;64457;51.976;9.834;2023-05-07T02:40:11;15.40;92.10
75824;DHT22;64457;51.976;9.834;2023-05-07T02:42:39;15.40;92.60
75824;DHT22;64457;51.976;9.834;2023-05-07T02:45:08;15.40;92.40
75824;DHT22;64457;51.976;9.834;2023-05-07T02:47:37;15.30;92.50
75824;DHT22;64457;51.976;9.834;2023-05-07T02:50:06;15.40;92.40
75824;DHT22;64457;51.976;9.834;2023-05-07T02:52:34;15.40;92.50
75824;DHT22;64457;51.976;9.834;2023-05-07T02:55:01;15.50;92.30
75824;DHT22;64457;51.976;9.834;2023-05-07T02:57:29;15.50;92.20
75824;DHT22;64457;51.976;9.834;2023-05-07T02:59:58;15.40;92.50
75824;DHT22;64457;51.976;9.834;2023-05-07T03:02:25;15.30;92.20
75824;DHT22;64457;51.976;9.834;2023-05-07T03:04:54;15.30;92.40
75824;DHT22;64457;51.976;9.834;2023-05-07T03:07:22;15.10;92.60
75824;DHT22;64457;51.976;9.834;2023-05-07T03:09:49;15.10;92.60
75824;DHT22;64457;51.976;9.834;2023-05-07T03:12:16;15.20;92.70
75824;DHT22;64457;51.976;9.834;2023-05-07T03:14:44;15.00;92.70
75824;DHT22;64457;51.976;9.834;2023-05-07T03:17:11;15.00;92.70
75824;DHT22;64457;51.976;9.834;2023-05-07T03:19:38;14.90;93.20
75824;DHT22;64457;51.976;9.834;2023-05-07T03:22:07;15.10;93.00
75824;DHT22;64457;51.976;9.834;2023-05-07T03:24:34;15.10;92.60
75824;DHT22;64457;51.976;9.834;2023-05-07T03:27:02;15.10;92.50
75824;DHT22;64457;51.976;9.834;2023-05-07T03:29:30;15.00;92.80
75824;DHT22;64457;51.976;9.834;2023-05-07T03:31:58;14.90;92.80
75824;DHT22;64457;51.976;9.834;2023-05-07T03:34:26;14.80;93.20
75824;DHT22;64457;51.976;9.834;2023-05-07T03:36:54;14.50;93.30
75824;DHT22;64457;51.976;9.834;2023-05-07T03:39:23;14.50;93.90
75824;DHT22;64457;51.976;9.834;2023-05-07T03:41:50;14.50;93.70
75824;DHT22;64457;51.976;9.834;2023-05-07T03:44:17;14.60;93.80
75824;DHT22;64457;51.976;9.834;2023-05-07T03:46:46;14.70;93.40
75824;DHT22;64457;51.976;9.834;2023-05-07T03:49:13;14.50;93.40
75824;DHT22;64457;51.976;9.834;2023-05-07T03:51:40;14.50;93.80
75824;DHT22;64457;51.976;9.834;2023-05-07T03:54:08;14.50;93.90
75824;DHT22;64457;51.976;9.834;2023-05-07T03:56:37;14.60;93.50
75824;DHT22;64457;51.976;9.834;2023-05-07T03:59:04;14.80;93.20
75824;DHT22;64457;51.976;9.834;2023-05-07T04:01:31;14.80;93.10
75824;DHT22;64457;51.976;9.834;2023-05-07T04:03:59;14.70;93.10
75824;DHT22;64457;51.976;9.834;2023-05-07T04:06:26;14.70;93.10
75824;DHT22;64457;51.976;9.834;2023-05-07T04:08:54;14.80;93.10
75824;DHT22;64457;51.976;9.834;2023-05-07T04:11:22;15.00;92.70
75824;DHT22;64457;51.976;9.834;2023-05-07T04:13:51;15.00;92.40
75824;DHT22;64457;51.976;9.834;2023-05-07T04:16:18;14.90;92.50
75824;DHT22;64457;51.976;9.834;2023-05-07T04:18:45;14.60;92.70
75824;DHT22;64457;51.976;9.834;2023-05-07T04:21:17;14.60;92.80
75824;DHT22;64457;51.976;9.834;2023-05-07T04:23:45;14.70;92.90
75824;DHT22;64457;51.976;9.834;2023-05-07T04:26:13;14.90;92.50
75824;DHT22;64457;51.976;9.834;2023-05-07T04:28:41;14.90;92.40
75824;DHT22;64457;51.976;9.834;2023-05-07T04:31:10;14.60;92.70
75824;DHT22;64457;51.976;9.834;2023-05-07T04:33:37;14.60;92.90
75824;DHT22;64457;51.976;9.834;2023-05-07T04:36:05;14.60;93.00
75824;DHT22;64457;51.976;9.834;2023-05-07T04:38:33;14.70;92.80
75824;DHT22;64457;51.976;9.834;2023-05-07T04:41:03;14.70;92.90
75824;DHT22;64457;51.976;9.834;2023-05-07T04:43:32;14.70;92.80
75824;DHT22;64457;51.976;9.834;2023-05-07T04:45:59;14.50;93.10
75824;DHT22;64457;51.976;9.834;2023-05-07T04:48:29;14.60;92.90
75824;DHT22;64457;51.976;9.834;2023-05-07T04:50:56;14.60;93.10
75824;DHT22;64457;51.976;9.834;2023-05-07T04:53:23;14.70;93.00
75824;DHT22;64457;51.976;9.834;2023-05-07T04:55:55;14.70;92.90
75824;DHT22;64457;51.976;9.834;2023-05-07T04:58:25;14.50;93.20
75824;DHT22;64457;51.976;9.834;2023-05-07T05:00:57;14.40;93.20
75824;DHT22;64457;51.976;9.834;2023-05-07T05:03:24;14.60;93.70
75824;DHT22;64457;51.976;9.834;2023-05-07T05:05:53;14.60;93.20
75824;DHT22;64457;51.976;9.834;2023-05-07T05:08:20;14.70;93.10
75824;DHT22;64457;51.976;9.834;2023-05-07T05:10:48;14.80;92.80
75824;DHT22;64457;51.976;9.834;2023-05-07T05:13:15;14.90;92.70
75824;DHT22;64457;51.976;9.834;2023-05-07T05:15:43;14.90;92.50
75824;DHT22;64457;51.976;9.834;2023-05-07T05:18:11;14.90;92.70
75824;DHT22;64457;51.976;9.834;2023-05-07T05:20:39;14.90;92.90
75824;DHT22;64457;51.976;9.834;2023-05-07T05:23:08;15.00;92.70
75824;DHT22;64457;51.976;9.834;2023-05-07T05:25:36;14.90;92.70
75824;DHT22;64457;51.976;9.834;2023-05-07T05:28:05;14.80;92.80
75824;DHT22;64457;51.976;9.834;2023-05-07T05:30:32;14.80;93.00
75824;DHT22;64457;51.976;9.834;2023-05-07T05:33:00;15.00;92.80
75824;DHT22;64457;51.976;9.834;2023-05-07T05:35:29;15.10;92.50
75824;DHT22;64457;51.976;9.834;2023-05-07T05:37:56;15.00;92.70
75824;DHT22;64457;51.976;9.834;2023-05-07T05:40:25;14.80;93.00
75824;DHT22;64457;51.976;9.834;2023-05-07T05:42:52;14.80;93.20
75824;DHT22;64457;51.976;9.834;2023-05-07T05:45:20;15.00;92.90
75824;DHT22;64457;51.976;9.834;2023-05-07T05:47:47;14.70;93.00
75824;DHT22;64457;51.976;9.834;2023-05-07T05:50:15;14.40;93.50
75824;DHT22;64457;51.976;9.834;2023-05-07T05:52:42;14.30;94.10
75824;DHT22;64457;51.976;9.834;2023-05-07T05:55:09;14.30;94.10
75824;DHT22;64457;51.976;9.834;2023-05-07T05:57:39;14.40;94.30
75824;DHT22;64457;51.976;9.834;2023-05-07T06:00:07;14.50;94.30
75824;DHT22;64457;51.976;9.834;2023-05-07T06:02:36;14.70;94.10
75824;DHT22;64457;51.976;9.834;2023-05-07T06:05:03;14.80;93.50
75824;DHT22;64457;51.976;9.834;2023-05-07T06:07:31;14.70;93.70
75824;DHT22;64457;51.976;9.834;2023-05-07T06:10:00;14.80;93.90
75824;DHT22;64457;51.976;9.834;2023-05-07T06:12:27;14.80;93.50
75824;DHT22;64457;51.976;9.834;2023-05-07T06:14:56;15.00;93.50
75824;DHT22;64457;51.976;9.834;2023-05-07T06:17:24;15.10;93.20
75824;DHT22;64457;51.976;9.834;2023-05-07T06:19:51;15.00;93.10
75824;DHT22;64457;51.976;9.834;2023-05-07T06:22:19;15.10;93.20
75824;DHT22;64457;51.976;9.834;2023-05-07T06:24:46;15.10;93.10
75824;DHT22;64457;51.976;9.834;2023-05-07T06:27:14;15.20;93.30
75824;DHT22;64457;51.976;9.834;2023-05-07T06:29:41;15.40;92.90
75824;DHT22;64457;51.976;9.834;2023-05-07T06:32:11;15.30;92.70
75824;DHT22;64457;51.976;9.834;2023-05-07T06:34:40;15.10;92.90
75824;DHT22;64457;51.976;9.834;2023-05-07T06:37:07;15.20;93.00
75824;DHT22;64457;51.976;9.834;2023-05-07T06:39:35;15.10;92.70
75824;DHT22;64457;51.976;9.834;2023-05-07T06:42:03;15.30;93.10
75824;DHT22;64457;51.976;9.834;2023-05-07T06:44:31;15.30;92.40
75824;DHT22;64457;51.976;9.834;2023-05-07T06:46:59;15.20;92.80
75824;DHT22;64457;51.976;9.834;2023-05-07T06:49:28;14.90;92.90
75824;DHT22;64457;51.976;9.834;2023-05-07T06:51:55;14.80;93.60
75824;DHT22;64457;51.976;9.834;2023-05-07T06:54:23;14.90;93.50
75824;DHT22;64457;51.976;9.834;2023-05-07T06:56:50;15.00;93.20
75824;DHT22;64457;51.976;9.834;2023-05-07T06:59:17;15.20;93.00
75824;DHT22;64457;51.976;9.834;2023-05-07T07:01:46;15.00;92.70
75824;DHT22;64457;51.976;9.834;2023-05-07T07:04:13;14.50;93.30
75824;DHT22;64457;51.976;9.834;2023-05-07T07:06:42;14.20;94.30
75824;DHT22;64457;51.976;9.834;2023-05-07T07:09:09;14.50;93.80
75824;DHT22;64457;51.976;9.834;2023-05-07T07:11:37;14.30;94.00
75824;DHT22;64457;51.976;9.834;2023-05-07T07:14:05;14.40;94.00
75824;DHT22;64457;51.976;9.834;2023-05-07T07:16:32;14.60;93.50
75824;DHT22;64457;51.976;9.834;2023-05-07T07:18:59;14.70;93.40
75824;DHT22;64457;51.976;9.834;2023-05-07T07:21:27;14.80;93.40
75824;DHT22;64457;51.976;9.834;2023-05-07T07:23:55;14.80;93.10
75824;DHT22;64457;51.976;9.834;2023-05-07T07:26:23;14.90;93.20
75824;DHT22;64457;51.976;9.834;2023-05-07T07:28:50;14.80;93.20
75824;DHT22;64457;51.976;9.834;2023-05-07T07:31:18;14.90;93.30
75824;DHT22;64457;51.976;9.834;2023-05-07T07:33:45;15.10;93.10
75824;DHT22;64457;51.976;9.834;2023-05-07T07:36:12;15.20;92.90
75824;DHT22;64457;51.976;9.834;2023-05-07T07:38:40;15.20;92.60
75824;DHT22;64457;51.976;9.834;2023-05-07T07:41:09;15.20;92.60
75824;DHT22;64457;51.976;9.834;2023-05-07T07:43:36;15.40;92.40
75824;DHT22;64457;51.976;9.834;2023-05-07T07:46:04;15.50;92.40
75824;DHT22;64457;51.976;9.834;2023-05-07T07:48:31;15.40;92.20
75824;DHT22;64457;51.976;9.834;2023-05-07T07:50:58;15.20;92.40
75824;DHT22;64457;51.976;9.834;2023-05-07T07:53:26;15.20;93.00
75824;DHT22;64457;51.976;9.834;2023-05-07T07:55:53;15.20;92.90
75824;DHT22;64457;51.976;9.834;2023-05-07T07:58:22;15.30;92.40
75824;DHT22;64457;51.976;9.834;2023-05-07T08:00:50;15.20;92.10
75824;DHT22;64457;51.976;9.834;2023-05-07T08:03:17;15.20;92.90
75824;DHT22;64457;51.976;9.834;2023-05-07T08:05:45;15.10;92.60
75824;DHT22;64457;51.976;9.834;2023-05-07T08:08:12;15.00;93.10
75824;DHT22;64457;51.976;9.834;2023-05-07T08:10:40;15.10;93.10
75824;DHT22;64457;51.976;9.834;2023-05-07T08:13:07;15.30;92.70
75824;DHT22;64457;51.976;9.834;2023-05-07T08:15:36;15.40;92.60
75824;DHT22;64457;51.976;9.834;2023-05-07T08:18:03;15.60;92.40
75824;DHT22;64457;51.976;9.834;2023-05-07T08:20:31;15.90;92.00
75824;DHT22;64457;51.976;9.834;2023-05-07T08:22:59;15.90;91.60
75824;DHT22;64457;51.976;9.834;2023-05-07T08:25:26;15.80;91.60
75824;DHT22;64457;51.976;9.834;2023-05-07T08:27:54;15.90;91.80
75824;DHT22;64457;51.976;9.834;2023-05-07T08:30:22;16.00;91.50
75824;DHT22;64457;51.976;9.834;2023-05-07T08:32:51;16.00;91.40
75824;DHT22;64457;51.976;9.834;2023-05-07T08:35:20;16.10;91.40
75824;DHT22;64457;51.976;9.834;2023-05-07T08:37:47;15.80;91.40
75824;DHT22;64457;51.976;9.834;2023-05-07T08:40:15;15.50;92.10
75824;DHT22;64457;51.976;9.834;2023-05-07T08:42:43;15.50;92.40
75824;DHT22;64457;51.976;9.834;2023-05-07T08:45:11;15.60;92.20
75824;DHT22;64457;51.976;9.834;2023-05-07T08:47:43;15.40;92.20
75824;DHT22;64457;51.976;9.834;2023-05-07T08:50:13;15.30;92.80
75824;DHT22;64457;51.976;9.834;2023-05-07T08:52:41;15.50;93.00
75824;DHT22;64457;51.976;9.834;2023-05-07T08:55:09;15.70;92.80
75824;DHT22;64457;51.976;9.834;2023-05-07T08:57:37;16.00;92.20
75824;DHT22;64457;51.976;9.834;2023-05-07T09:00:05;16.20;91.80
75824;DHT22;64457;51.976;9.834;2023-05-07T09:02:35;16.30;91.80
75824;DHT22;64457;51.976;9.834;2023-05-07T09:05:02;15.70;91.90
75824;DHT22;64457;51.976;9.834;2023-05-07T09:07:32;15.50;92.50
75824;DHT22;64457;51.976;9.834;2023-05-07T09:10:01;15.60;92.50
75824;DHT22;64457;51.976;9.834;2023-05-07T09:12:30;15.90;92.30
75824;DHT22;64457;51.976;9.834;2023-05-07T09:14:58;16.10;91.50
75824;DHT22;64457;51.976;9.834;2023-05-07T09:17:26;15.90;91.60
75824;DHT22;64457;51.976;9.834;2023-05-07T09:19:54;16.00;91.50
75824;DHT22;64457;51.976;9.834;2023-05-07T09:22:21;15.60;92.10
75824;DHT22;64457;51.976;9.834;2023-05-07T09:24:51;15.60;92.00
75824;DHT22;64457;51.976;9.834;2023-05-07T09:27:18;15.40;92.10
75824;DHT22;64457;51.976;9.834;2023-05-07T09:29:46;15.20;92.30
75824;DHT22;64457;51.976;9.834;2023-05-07T09:32:14;15.50;92.80
75824;DHT22;64457;51.976;9.834;2023-05-07T09:34:42;15.80;91.70
75824;DHT22;64457;51.976;9.834;2023-05-07T09:37:12;16.10;92.00
75824;DHT22;64457;51.976;9.834;2023-05-07T09:39:41;16.10;91.60
75824;DHT22;64457;51.976;9.834;2023-05-07T09:42:10;16.30;91.40
75824;DHT22;64457;51.976;9.834;2023-05-07T09:44:38;16.20;91.50
75824;DHT22;64457;51.976;9.834;2023-05-07T09:47:07;16.40;91.00
75824;DHT22;64457;51.976;9.834;2023-05-07T09:49:35;16.10;91.40
75824;DHT22;64457;51.976;9.834;2023-05-07T09:52:05;16.30;91.70
75824;DHT22;64457;51.976;9.834;2023-05-07T09:54:34;16.70;90.50
75824;DHT22;64457;51.976;9.834;2023-05-07T09:57:04;16.90;90.60
75824;DHT22;64457;51.976;9.834;2023-05-07T09:59:34;16.60;91.20
75824;DHT22;64457;51.976;9.834;2023-05-07T10:02:04;16.60;90.30
75824;DHT22;64457;51.976;9.834;2023-05-07T10:04:33;16.50;90.40
75824;DHT22;64457;51.976;9.834;2023-05-07T10:07:01;16.70;90.80
75824;DHT22;64457;51.976;9.834;2023-05-07T10:09:30;16.70;90.60
75824;DHT22;64457;51.976;9.834;2023-05-07T10:11:58;16.70;90.80
75824;DHT22;64457;51.976;9.834;2023-05-07T10:14:28;16.80;90.40
75824;DHT22;64457;51.976;9.834;2023-05-07T10:16:57;17.10;90.20
75824;DHT22;64457;51.976;9.834;2023-05-07T10:19:25;17.30;89.50
75824;DHT22;64457;51.976;9.834;2023-05-07T10:21:55;17.40;89.50
75824;DHT22;64457;51.976;9.834;2023-05-07T10:24:27;17.20;89.70
75824;DHT22;64457;51.976;9.834;2023-05-07T10:26:59;16.60;90.50
75824;DHT22;64457;51.976;9.834;2023-05-07T10:29:36;16.40;90.50
75824;DHT22;64457;51.976;9.834;2023-05-07T10:32:30;16.00;91.20
75824;DHT22;64457;51.976;9.834;2023-05-07T10:35:04;15.50;92.10
75824;DHT22;64457;51.976;9.834;2023-05-07T10:37:36;15.90;91.70
75824;DHT22;64457;51.976;9.834;2023-05-07T10:40:05;15.80;91.60
75824;DHT22;64457;51.976;9.834;2023-05-07T10:42:35;16.00;92.00
75824;DHT22;64457;51.976;9.834;2023-05-07T10:45:13;16.20;92.00
75824;DHT22;64457;51.976;9.834;2023-05-07T10:48:09;17.10;91.70
75824;DHT22;64457;51.976;9.834;2023-05-07T10:50:38;17.60;89.60
75824;DHT22;64457;51.976;9.834;2023-05-07T10:53:25;17.60;89.20
75824;DHT22;64457;51.976;9.834;2023-05-07T10:56:24;17.40;89.40
75824;DHT22;64457;51.976;9.834;2023-05-07T10:59:07;17.00;90.20
75824;DHT22;64457;51.976;9.834;2023-05-07T11:02:00;17.10;90.40
75824;DHT22;64457;51.976;9.834;2023-05-07T11:04:31;17.10;90.90
75824;DHT22;64457;51.976;9.834;2023-05-07T11:07:26;17.80;88.90
75824;DHT22;64457;51.976;9.834;2023-05-07T11:09:55;17.90;89.60
75824;DHT22;64457;51.976;9.834;2023-05-07T11:12:46;18.50;87.70
75824;DHT22;64457;51.976;9.834;2023-05-07T11:15:40;18.70;86.80
75824;DHT22;64457;51.976;9.834;2023-05-07T11:18:11;19.30;86.30
75824;DHT22;64457;51.976;9.834;2023-05-07T11:21:01;19.90;84.50
75824;DHT22;64457;51.976;9.834;2023-05-07T11:23:55;20.20;81.30
75824;DHT22;64457;51.976;9.834;2023-05-07T11:26:28;19.70;81.80
75824;DHT22;64457;51.976;9.834;2023-05-07T11:28:57;19.70;81.10
75824;DHT22;64457;51.976;9.834;2023-05-07T11:31:27;19.90;83.50
75824;DHT22;64457;51.976;9.834;2023-05-07T11:33:55;20.50;81.50
75824;DHT22;64457;51.976;9.834;2023-05-07T11:36:24;20.90;80.50
75824;DHT22;64457;51.976;9.834;2023-05-07T11:38:52;20.50;80.30
75824;DHT22;64457;51.976;9.834;2023-05-07T11:41:20;19.90;81.50
75824;DHT22;64457;51.976;9.834;2023-05-07T11:43:58;19.70;81.40
75824;DHT22;64457;51.976;9.834;2023-05-07T11:46:27;19.60;80.60
75824;DHT22;64457;51.976;9.834;2023-05-07T11:48:55;19.00;83.10
75824;DHT22;64457;51.976;9.834;2023-05-07T11:51:25;18.80;84.50
75824;DHT22;64457;51.976;9.834;2023-05-07T11:53:53;19.10;82.90
75824;DHT22;64457;51.976;9.834;2023-05-07T11:56:21;19.30;83.20
75824;DHT22;64457;51.976;9.834;2023-05-07T11:58:48;18.80;84.00
75824;DHT22;64457;51.976;9.834;2023-05-07T12:01:17;18.80;83.90
75824;DHT22;64457;51.976;9.834;2023-05-07T12:03:45;19.10;84.50
75824;DHT22;64457;51.976;9.834;2023-05-07T12:06:14;18.90;84.20
75824;DHT22;64457;51.976;9.834;2023-05-07T12:08:45;19.00;83.20
75824;DHT22;64457;51.976;9.834;2023-05-07T12:11:15;19.20;84.80
75824;DHT22;64457;51.976;9.834;2023-05-07T12:13:44;19.50;82.40
75824;DHT22;64457;51.976;9.834;2023-05-07T12:16:12;19.50;82.00
75824;DHT22;64457;51.976;9.834;2023-05-07T12:18:40;19.50;81.50
75824;DHT22;64457;51.976;9.834;2023-05-07T12:21:07;19.30;81.30
75824;DHT22;64457;51.976;9.834;2023-05-07T12:23:36;19.30;83.70
75824;DHT22;64457;51.976;9.834;2023-05-07T12:26:05;19.60;82.70
75824;DHT22;64457;51.976;9.834;2023-05-07T12:28:36;19.70;82.60
75824;DHT22;64457;51.976;9.834;2023-05-07T12:31:05;20.00;83.40
75824;DHT22;64457;51.976;9.834;2023-05-07T12:33:34;20.40;81.30
75824;DHT22;64457;51.976;9.834;2023-05-07T12:36:06;20.70;79.90
75824;DHT22;64457;51.976;9.834;2023-05-07T12:38:36;20.90;78.80
75824;DHT22;64457;51.976;9.834;2023-05-07T12:41:06;20.80;80.10
75824;DHT22;64457;51.976;9.834;2023-05-07T12:43:34;20.60;78.60
75824;DHT22;64457;51.976;9.834;2023-05-07T12:46:04;20.10;80.30
75824;DHT22;64457;51.976;9.834;2023-05-07T12:48:32;20.00;81.80
75824;DHT22;64457;51.976;9.834;2023-05-07T12:51:01;19.60;81.60
75824;DHT22;64457;51.976;9.834;2023-05-07T12:53:29;20.00;81.30
75824;DHT22;64457;51.976;9.834;2023-05-07T12:55:58;19.90;81.20
75824;DHT22;64457;51.976;9.834;2023-05-07T12:58:29;20.00;81.70
75824;DHT22;64457;51.976;9.834;2023-05-07T13:00:58;20.30;81.10
75824;DHT22;64457;51.976;9.834;2023-05-07T13:03:27;20.60;80.90
75824;DHT22;64457;51.976;9.834;2023-05-07T13:05:59;20.90;79.20
75824;DHT22;64457;51.976;9.834;2023-05-07T13:08:30;21.10;79.30
75824;DHT22;64457;51.976;9.834;2023-05-07T13:11:00;21.10;77.40
75824;DHT22;64457;51.976;9.834;2023-05-07T13:13:31;20.80;78.10
75824;DHT22;64457;51.976;9.834;2023-05-07T13:15:59;19.80;79.90
75824;DHT22;64457;51.976;9.834;2023-05-07T13:18:30;19.40;81.90
75824;DHT22;64457;51.976;9.834;2023-05-07T13:20:58;19.70;82.50
75824;DHT22;64457;51.976;9.834;2023-05-07T13:23:26;20.00;81.40
75824;DHT22;64457;51.976;9.834;2023-05-07T13:25:53;20.50;80.30
75824;DHT22;64457;51.976;9.834;2023-05-07T13:28:21;20.60;79.70
75824;DHT22;64457;51.976;9.834;2023-05-07T13:30:50;20.80;78.70
75824;DHT22;64457;51.976;9.834;2023-05-07T13:33:19;20.60;79.50
75824;DHT22;64457;51.976;9.834;2023-05-07T13:35:47;20.40;79.70
75824;DHT22;64457;51.976;9.834;2023-05-07T13:38:15;20.10;80.90
75824;DHT22;64457;51.976;9.834;2023-05-07T13:40:43;20.10;79.90
75824;DHT22;64457;51.976;9.834;2023-05-07T13:43:10;20.10;80.70
75824;DHT22;64457;51.976;9.834;2023-05-07T13:45:38;20.10;80.00
75824;DHT22;64457;51.976;9.834;2023-05-07T13:48:08;19.60;80.00
75824;DHT22;64457;51.976;9.834;2023-05-07T13:50:35;19.60;81.50
75824;DHT22;64457;51.976;9.834;2023-05-07T13:53:03;19.50;80.50
75824;DHT22;64457;51.976;9.834;2023-05-07T13:55:33;19.70;80.30
75824;DHT22;64457;51.976;9.834;2023-05-07T13:58:02;20.10;80.80
75824;DHT22;64457;51.976;9.834;2023-05-07T14:00:30;20.30;81.40
75824;DHT22;64457;51.976;9.834;2023-05-07T14:02:57;20.40;78.20
75824;DHT22;64457;51.976;9.834;2023-05-07T14:05:26;20.20;79.40
75824;DHT22;64457;51.976;9.834;2023-05-07T14:07:54;19.70;79.60
75824;DHT22;64457;51.976;9.834;2023-05-07T14:10:23;19.90;81.80
75824;DHT22;64457;51.976;9.834;2023-05-07T14:12:51;19.90;79.50
75824;DHT22;64457;51.976;9.834;2023-05-07T14:15:20;19.70;80.80
75824;DHT22;64457;51.976;9.834;2023-05-07T14:17:47;19.60;79.90
75824;DHT22;64457;51.976;9.834;2023-05-07T14:20:15;19.80;80.50
75824;DHT22;64457;51.976;9.834;2023-05-07T14:22:43;19.60;80.70
75824;DHT22;64457;51.976;9.834;2023-05-07T14:25:11;19.00;81.80
75824;DHT22;64457;51.976;9.834;2023-05-07T14:27:40;19.00;84.20
75824;DHT22;64457;51.976;9.834;2023-05-07T14:30:09;19.50;82.60
75824;DHT22;64457;51.976;9.834;2023-05-07T14:32:37;19.70;81.40
75824;DHT22;64457;51.976;9.834;2023-05-07T14:35:04;19.70;80.70
75824;DHT22;64457;51.976;9.834;2023-05-07T14:37:32;19.90;80.70
75824;DHT22;64457;51.976;9.834;2023-05-07T14:40:01;19.90;79.80
75824;DHT22;64457;51.976;9.834;2023-05-07T14:42:29;19.80;81.10
75824;DHT22;64457;51.976;9.834;2023-05-07T14:44:56;19.60;79.90
75824;DHT22;64457;51.976;9.834;2023-05-07T14:47:25;19.40;79.10
75824;DHT22;64457;51.976;9.834;2023-05-07T14:49:52;19.30;81.70
75824;DHT22;64457;51.976;9.834;2023-05-07T14:52:21;19.40;82.40
75824;DHT22;64457;51.976;9.834;2023-05-07T14:54:51;19.80;82.70
75824;DHT22;64457;51.976;9.834;2023-05-07T14:57:21;19.90;79.60
75824;DHT22;64457;51.976;9.834;2023-05-07T14:59:48;19.60;80.30
75824;DHT22;64457;51.976;9.834;2023-05-07T15:02:17;19.70;81.30
75824;DHT22;64457;51.976;9.834;2023-05-07T15:04:44;19.70;80.20
75824;DHT22;64457;51.976;9.834;2023-05-07T15:07:12;19.50;81.70
75824;DHT22;64457;51.976;9.834;2023-05-07T15:09:41;19.50;81.60
75824;DHT22;64457;51.976;9.834;2023-05-07T15:12:08;19.70;79.80
75824;DHT22;64457;51.976;9.834;2023-05-07T15:14:38;19.40;81.70
75824;DHT22;64457;51.976;9.834;2023-05-07T15:17:06;19.60;79.70
75824;DHT22;64457;51.976;9.834;2023-05-07T15:19:36;19.80;79.70
75824;DHT22;64457;51.976;9.834;2023-05-07T15:22:04;19.80;80.80
75824;DHT22;64457;51.976;9.834;2023-05-07T15:24:32;19.90;80.00
75824;DHT22;64457;51.976;9.834;2023-05-07T15:27:03;20.00;79.70
75824;DHT22;64457;51.976;9.834;2023-05-07T15:29:30;20.10;80.20
75824;DHT22;64457;51.976;9.834;2023-05-07T15:31:59;20.40;80.00
75824;DHT22;64457;51.976;9.834;2023-05-07T15:34:27;20.40;79.10
75824;DHT22;64457;51.976;9.834;2023-05-07T15:36:56;20.50;78.30
75824;DHT22;64457;51.976;9.834;2023-05-07T15:39:23;20.50;78.70
75824;DHT22;64457;51.976;9.834;2023-05-07T15:41:51;20.20;77.70